sensor_id;sensor_type;location;lat;lon;timestamp;temperature;humidity
19781;DHT22;10050;55.492;13.506;2023-05-29T00:00:23;11.00;99.90
19781;DHT22;10050;55.492;13.506;2023-05-29T00:02:51;11.00;99.90
19781;DHT22;10050;55.492;13.506;2023-05-29T00:05:19;11.00;99.90
19781;DHT22;10050;55.492;13.506;2023-05-29T00:07:45;11.00;99.90
19781;DHT22;10050;55.492;13.506;2023-05-29T00:10:11;11.00;99.90
19781;DHT22;10050;55.492;13.506;2023-05-29T00:12:38;10.90;99.90
19781;DHT22;10050;55.492;13.506;2023-05-29T00:15:05;10.90;99.90
19781;DHT22;10050;55.492;13.506;2023-05-29T00:17:31;11.00;99.90
19781;DHT22;10050;55.492;13.506;2023-05-29T00:20:01;10.90;99.90
19781;DHT22;10050;55.492;13.506;2023-05-29T00:22:31;10.90;99.90
19781;DHT22;10050;55.492;13.506;2023-05-29T00:24:56;10.90;99.90
19781;DHT22;10050;55.492;13.506;2023-05-29T00:27:22;10.90;99.90
19781;DHT22;10050;55.492;13.506;2023-05-29T00:29:48;10.80;99.90
19781;DHT22;10050;55.492;13.506;2023-05-29T00:32:13;10.80;99.90
19781;DHT22;10050;55.492;13.506;2023-05-29T00:34:39;10.80;99.90
19781;DHT22;10050;55.492;13.506;2023-05-29T00:37:07;10.80;99.90
19781;DHT22;10050;55.492;13.506;2023-05-29T00:39:33;10.70;99.90
19781;DHT22;10050;55.492;13.506;2023-05-29T00:41:59;10.60;99.90
19781;DHT22;10050;55.492;13.506;2023-05-29T00:44:25;10.60;99.90
19781;DHT22;10050;55.492;13.506;2023-05-29T00:46:52;10.60;99.90
19781;DHT22;10050;55.492;13.506;2023-05-29T00:49:19;10.60;99.90
19781;DHT22;10050;55.492;13.506;2023-05-29T00:51:45;10.60;99.90
19781;DHT22;10050;55.492;13.506;2023-05-29T00:54:13;10.50;99.90
19781;DHT22;10050;55.492;13.506;2023-05-29T00:56:41;10.50;99.90
19781;DHT22;10050;55.492;13.506;2023-05-29T00:59:12;10.40;99.90
19781;DHT22;10050;55.492;13.506;2023-05-29T01:01:38;10.40;99.90
19781;DHT22;10050;55.492;13.506;2023-05-29T01:04:06;10.30;99.90
19781;DHT22;10050;55.492;13.506;2023-05-29T01:06:35;10.30;99.90
19781;DHT22;10050;55.492;13.506;2023-05-29T01:09:01;10.30;99.90
19781;DHT22;10050;55.492;13.506;2023-05-29T01:14:17;10.20;99.90
19781;DHT22;10050;55.492;13.506;2023-05-29T01:17:03;10.10;99.90
19781;DHT22;10050;55.492;13.506;2023-05-29T01:20:08;10.10;99.90
19781;DHT22;10050;55.492;13.506;2023-05-29T01:25:23;10.10;99.90
19781;DHT22;10050;55.492;13.506;2023-05-29T01:27:50;10.00;99.90
19781;DHT22;10050;55.492;13.506;2023-05-29T01:30:20;10.00;99.90
19781;DHT22;10050;55.492;13.506;2023-05-29T01:32:53;9.90;99.90
19781;DHT22;10050;55.492;13.506;2023-05-29T01:35:20;9.90;99.90
19781;DHT22;10050;55.492;13.506;2023-05-29T01:37:45;9.90;99.90
19781;DHT22;10050;55.492;13.506;2023-05-29T01:40:11;9.80;99.90
19781;DHT22;10050;55.492;13.506;2023-05-29T01:42:37;9.80;99.90
19781;DHT22;10050;55.492;13.506;2023-05-29T01:45:03;9.70;99.90
19781;DHT22;10050;55.492;13.506;2023-05-29T01:47:32;9.70;99.90
19781;DHT22;10050;55.492;13.506;2023-05-29T01:49:58;9.70;99.90
19781;DHT22;10050;55.492;13.506;2023-05-29T01:52:25;9.70;99.90
19781;DHT22;10050;55.492;13.506;2023-05-29T01:54:51;9.70;99.90
19781;DHT22;10050;55.492;13.506;2023-05-29T01:57:16;9.60;99.90
19781;DHT22;10050;55.492;13.506;2023-05-29T01:59:42;9.60;99.90
19781;DHT22;10050;55.492;13.506;2023-05-29T02:02:09;9.60;99.90
19781;DHT22;10050;55.492;13.506;2023-05-29T02:04:34;9.60;99.90
19781;DHT22;10050;55.492;13.506;2023-05-29T02:07:00;9.60;99.90
19781;DHT22;10050;55.492;13.506;2023-05-29T02:09:26;9.50;99.90
19781;DHT22;10050;55.492;13.506;2023-05-29T02:11:52;9.50;99.90
19781;DHT22;10050;55.492;13.506;2023-05-29T02:14:20;9.50;99.90
19781;DHT22;10050;55.492;13.506;2023-05-29T02:16:46;9.50;99.90
19781;DHT22;10050;55.492;13.506;2023-05-29T02:19:11;9.50;99.90
19781;DHT22;10050;55.492;13.506;2023-05-29T02:21:40;9.40;99.90
19781;DHT22;10050;55.492;13.506;2023-05-29T02:24:08;9.40;99.90
19781;DHT22;10050;55.492;13.506;2023-05-29T02:26:43;9.40;99.90
19781;DHT22;10050;55.492;13.506;2023-05-29T02:29:09;9.30;99.90
19781;DHT22;10050;55.492;13.506;2023-05-29T02:31:36;9.30;99.90
19781;DHT22;10050;55.492;13.506;2023-05-29T02:34:01;9.30;99.90
19781;DHT22;10050;55.492;13.506;2023-05-29T02:36:30;9.30;99.90
19781;DHT22;10050;55.492;13.506;2023-05-29T02:38:56;9.30;99.90
19781;DHT22;10050;55.492;13.506;2023-05-29T02:41:24;9.30;99.90
19781;DHT22;10050;55.492;13.506;2023-05-29T02:43:56;9.30;99.90
19781;DHT22;10050;55.492;13.506;2023-05-29T02:46:25;9.20;99.90
19781;DHT22;10050;55.492;13.506;2023-05-29T02:48:50;9.20;99.90
19781;DHT22;10050;55.492;13.506;2023-05-29T02:51:16;9.20;99.90
19781;DHT22;10050;55.492;13.506;2023-05-29T02:53:41;9.10;99.90
19781;DHT22;10050;55.492;13.506;2023-05-29T02:56:13;9.10;99.90
19781;DHT22;10050;55.492;13.506;2023-05-29T02:58:41;9.10;99.90
19781;DHT22;10050;55.492;13.506;2023-05-29T03:01:07;9.10;99.90
19781;DHT22;10050;55.492;13.506;2023-05-29T03:03:33;9.10;99.90
19781;DHT22;10050;55.492;13.506;2023-05-29T03:05:59;9.10;99.90
19781;DHT22;10050;55.492;13.506;2023-05-29T03:08:29;9.10;99.90
19781;DHT22;10050;55.492;13.506;2023-05-29T03:10:59;9.10;99.90
19781;DHT22;10050;55.492;13.506;2023-05-29T03:13:24;9.10;99.90
19781;DHT22;10050;55.492;13.506;2023-05-29T03:15:53;9.10;99.90
19781;DHT22;10050;55.492;13.506;2023-05-29T03:18:22;9.10;99.90
19781;DHT22;10050;55.492;13.506;2023-05-29T03:20:48;9.10;99.90
19781;DHT22;10050;55.492;13.506;2023-05-29T03:23:14;9.10;99.90
19781;DHT22;10050;55.492;13.506;2023-05-29T03:25:40;9.20;99.90
19781;DHT22;10050;55.492;13.506;2023-05-29T03:28:06;9.20;99.90
19781;DHT22;10050;55.492;13.506;2023-05-29T03:30:31;9.20;99.90
19781;DHT22;10050;55.492;13.506;2023-05-29T03:32:57;9.30;99.90
19781;DHT22;10050;55.492;13.506;2023-05-29T03:35:29;9.30;99.90
19781;DHT22;10050;55.492;13.506;2023-05-29T03:37:54;9.30;99.90
19781;DHT22;10050;55.492;13.506;2023-05-29T03:40:20;9.30;99.90
19781;DHT22;10050;55.492;13.506;2023-05-29T03:42:46;9.30;99.90
19781;DHT22;10050;55.492;13.506;2023-05-29T03:45:12;9.30;99.90
19781;DHT22;10050;55.492;13.506;2023-05-29T03:47:37;9.30;99.90
19781;DHT22;10050;55.492;13.506;2023-05-29T03:50:03;9.30;99.90
19781;DHT22;10050;55.492;13.506;2023-05-29T03:52:29;9.40;99.90
19781;DHT22;10050;55.492;13.506;2023-05-29T03:54:54;9.40;99.90
19781;DHT22;10050;55.492;13.506;2023-05-29T03:57:20;9.40;99.90
19781;DHT22;10050;55.492;13.506;2023-05-29T03:59:46;9.40;99.90
19781;DHT22;10050;55.492;13.506;2023-05-29T04:02:12;9.40;99.90
19781;DHT22;10050;55.492;13.506;2023-05-29T04:04:37;9.40;99.90
19781;DHT22;10050;55.492;13.506;2023-05-29T04:07:05;9.40;99.90
19781;DHT22;10050;55.492;13.506;2023-05-29T04:09:32;9.40;99.90
19781;DHT22;10050;55.492;13.506;2023-05-29T04:11:58;9.40;99.90
19781;DHT22;10050;55.492;13.506;2023-05-29T04:14:25;9.40;99.90
19781;DHT22;10050;55.492;13.506;2023-05-29T04:16:50;9.50;99.90
19781;DHT22;10050;55.492;13.506;2023-05-29T04:19:16;9.50;99.90
19781;DHT22;10050;55.492;13.506;2023-05-29T04:21:42;9.60;99.90
19781;DHT22;10050;55.492;13.506;2023-05-29T04:24:09;9.60;99.90
19781;DHT22;10050;55.492;13.506;2023-05-29T04:26:36;9.70;99.90
19781;DHT22;10050;55.492;13.506;2023-05-29T04:29:06;9.70;99.90
19781;DHT22;10050;55.492;13.506;2023-05-29T04:31:41;9.80;99.90
19781;DHT22;10050;55.492;13.506;2023-05-29T04:34:07;9.80;99.90
19781;DHT22;10050;55.492;13.506;2023-05-29T04:36:32;9.90;99.90
19781;DHT22;10050;55.492;13.506;2023-05-29T04:38:59;9.90;99.90
19781;DHT22;10050;55.492;13.506;2023-05-29T04:41:25;10.00;99.90
19781;DHT22;10050;55.492;13.506;2023-05-29T04:43:57;10.00;99.90
19781;DHT22;10050;55.492;13.506;2023-05-29T04:46:24;10.00;99.90
19781;DHT22;10050;55.492;13.506;2023-05-29T04:49:01;10.10;99.90
19781;DHT22;10050;55.492;13.506;2023-05-29T04:51:37;10.20;99.90
19781;DHT22;10050;55.492;13.506;2023-05-29T04:54:07;10.30;99.90
19781;DHT22;10050;55.492;13.506;2023-05-29T04:56:34;10.30;99.90
19781;DHT22;10050;55.492;13.506;2023-05-29T04:59:00;10.40;99.90
19781;DHT22;10050;55.492;13.506;2023-05-29T05:01:26;10.50;99.90
19781;DHT22;10050;55.492;13.506;2023-05-29T05:03:52;10.60;99.90
19781;DHT22;10050;55.492;13.506;2023-05-29T05:06:24;10.70;99.90
19781;DHT22;10050;55.492;13.506;2023-05-29T05:08:51;10.80;99.90
19781;DHT22;10050;55.492;13.506;2023-05-29T05:11:18;10.90;99.90
19781;DHT22;10050;55.492;13.506;2023-05-29T05:13:44;11.00;99.90
19781;DHT22;10050;55.492;13.506;2023-05-29T05:16:12;11.10;99.90
19781;DHT22;10050;55.492;13.506;2023-05-29T05:18:38;11.30;99.90
19781;DHT22;10050;55.492;13.506;2023-05-29T05:21:07;11.40;99.90
19781;DHT22;10050;55.492;13.506;2023-05-29T05:23:32;11.50;99.90
19781;DHT22;10050;55.492;13.506;2023-05-29T05:25:58;11.80;99.90
19781;DHT22;10050;55.492;13.506;2023-05-29T05:28:24;12.00;99.90
19781;DHT22;10050;55.492;13.506;2023-05-29T05:30:58;12.20;99.90
19781;DHT22;10050;55.492;13.506;2023-05-29T05:33:27;12.50;99.90
19781;DHT22;10050;55.492;13.506;2023-05-29T05:35:53;13.00;99.90
19781;DHT22;10050;55.492;13.506;2023-05-29T05:38:19;13.40;99.90
19781;DHT22;10050;55.492;13.506;2023-05-29T05:40:47;13.80;99.90
19781;DHT22;10050;55.492;13.506;2023-05-29T05:43:12;14.20;99.90
19781;DHT22;10050;55.492;13.506;2023-05-29T05:45:38;14.10;99.90
19781;DHT22;10050;55.492;13.506;2023-05-29T05:48:07;14.20;99.90
19781;DHT22;10050;55.492;13.506;2023-05-29T05:50:34;14.40;99.90
19781;DHT22;10050;55.492;13.506;2023-05-29T05:53:00;14.40;99.90
19781;DHT22;10050;55.492;13.506;2023-05-29T05:55:26;14.50;99.90
19781;DHT22;10050;55.492;13.506;2023-05-29T05:57:53;14.40;99.90
19781;DHT22;10050;55.492;13.506;2023-05-29T06:00:22;14.40;99.90
19781;DHT22;10050;55.492;13.506;2023-05-29T06:02:51;14.40;99.90
19781;DHT22;10050;55.492;13.506;2023-05-29T06:05:20;14.30;99.90
19781;DHT22;10050;55.492;13.506;2023-05-29T06:07:46;14.50;99.90
19781;DHT22;10050;55.492;13.506;2023-05-29T06:10:12;14.40;99.90
19781;DHT22;10050;55.492;13.506;2023-05-29T06:12:38;14.50;99.90
19781;DHT22;10050;55.492;13.506;2023-05-29T06:15:04;14.40;99.90
19781;DHT22;10050;55.492;13.506;2023-05-29T06:17:31;14.40;99.90
19781;DHT22;10050;55.492;13.506;2023-05-29T06:19:57;14.50;99.90
19781;DHT22;10050;55.492;13.506;2023-05-29T06:22:22;14.60;99.90
19781;DHT22;10050;55.492;13.506;2023-05-29T06:24:48;14.80;99.90
19781;DHT22;10050;55.492;13.506;2023-05-29T06:27:14;14.90;99.90
19781;DHT22;10050;55.492;13.506;2023-05-29T06:29:39;15.10;99.90
19781;DHT22;10050;55.492;13.506;2023-05-29T06:32:06;15.30;99.90
19781;DHT22;10050;55.492;13.506;2023-05-29T06:34:31;15.40;99.90
19781;DHT22;10050;55.492;13.506;2023-05-29T06:36:57;15.70;99.90
19781;DHT22;10050;55.492;13.506;2023-05-29T06:39:22;15.80;99.90
19781;DHT22;10050;55.492;13.506;2023-05-29T06:41:49;16.00;99.90
19781;DHT22;10050;55.492;13.506;2023-05-29T06:44:15;16.00;99.90
19781;DHT22;10050;55.492;13.506;2023-05-29T06:46:40;16.10;99.90
19781;DHT22;10050;55.492;13.506;2023-05-29T06:49:06;16.20;99.90
19781;DHT22;10050;55.492;13.506;2023-05-29T06:51:34;16.50;99.90
19781;DHT22;10050;55.492;13.506;2023-05-29T06:54:00;16.60;99.90
19781;DHT22;10050;55.492;13.506;2023-05-29T06:56:26;16.60;99.90
19781;DHT22;10050;55.492;13.506;2023-05-29T06:58:53;16.90;99.90
19781;DHT22;10050;55.492;13.506;2023-05-29T07:04:24;17.20;99.90
19781;DHT22;10050;55.492;13.506;2023-05-29T07:06:50;17.50;99.90
19781;DHT22;10050;55.492;13.506;2023-05-29T07:09:16;17.60;99.90
19781;DHT22;10050;55.492;13.506;2023-05-29T07:11:42;17.90;99.90
19781;DHT22;10050;55.492;13.506;2023-05-29T07:14:08;18.00;99.90
19781;DHT22;10050;55.492;13.506;2023-05-29T07:16:33;18.40;99.90
19781;DHT22;10050;55.492;13.506;2023-05-29T07:18:59;18.50;99.90
19781;DHT22;10050;55.492;13.506;2023-05-29T07:21:25;18.60;99.90
19781;DHT22;10050;55.492;13.506;2023-05-29T07:23:51;18.70;99.90
19781;DHT22;10050;55.492;13.506;2023-05-29T07:26:16;18.70;99.90
19781;DHT22;10050;55.492;13.506;2023-05-29T07:28:42;18.80;99.90
19781;DHT22;10050;55.492;13.506;2023-05-29T07:31:08;19.00;99.90
19781;DHT22;10050;55.492;13.506;2023-05-29T07:33:34;19.20;99.90
19781;DHT22;10050;55.492;13.506;2023-05-29T07:36:00;19.30;99.90
19781;DHT22;10050;55.492;13.506;2023-05-29T07:38:25;19.10;99.90
19781;DHT22;10050;55.492;13.506;2023-05-29T07:40:51;19.20;99.90
19781;DHT22;10050;55.492;13.506;2023-05-29T07:43:17;19.30;99.90
19781;DHT22;10050;55.492;13.506;2023-05-29T07:45:43;19.40;99.90
19781;DHT22;10050;55.492;13.506;2023-05-29T07:48:09;19.70;99.90
19781;DHT22;10050;55.492;13.506;2023-05-29T07:50:34;20.00;99.90
19781;DHT22;10050;55.492;13.506;2023-05-29T07:53:02;20.00;99.90
19781;DHT22;10050;55.492;13.506;2023-05-29T07:55:28;20.00;99.90
19781;DHT22;10050;55.492;13.506;2023-05-29T07:57:53;19.90;99.90
19781;DHT22;10050;55.492;13.506;2023-05-29T08:00:19;20.10;99.90
19781;DHT22;10050;55.492;13.506;2023-05-29T08:02:45;20.20;99.90
19781;DHT22;10050;55.492;13.506;2023-05-29T08:05:10;20.70;99.90
19781;DHT22;10050;55.492;13.506;2023-05-29T08:07:37;21.10;99.90
19781;DHT22;10050;55.492;13.506;2023-05-29T08:10:02;21.30;99.90
19781;DHT22;10050;55.492;13.506;2023-05-29T08:12:30;21.20;99.90
19781;DHT22;10050;55.492;13.506;2023-05-29T08:14:56;21.30;99.90
19781;DHT22;10050;55.492;13.506;2023-05-29T08:17:22;21.10;99.90
19781;DHT22;10050;55.492;13.506;2023-05-29T08:19:47;20.90;99.90
19781;DHT22;10050;55.492;13.506;2023-05-29T08:22:14;21.10;99.90
19781;DHT22;10050;55.492;13.506;2023-05-29T08:24:40;21.20;99.90
19781;DHT22;10050;55.492;13.506;2023-05-29T08:27:08;21.40;99.90
19781;DHT22;10050;55.492;13.506;2023-05-29T08:29:34;21.50;99.90
19781;DHT22;10050;55.492;13.506;2023-05-29T08:32:01;21.50;99.90
19781;DHT22;10050;55.492;13.506;2023-05-29T08:34:27;21.80;99.90
19781;DHT22;10050;55.492;13.506;2023-05-29T08:36:53;21.90;99.90
19781;DHT22;10050;55.492;13.506;2023-05-29T08:39:20;22.30;99.90
19781;DHT22;10050;55.492;13.506;2023-05-29T08:42:04;22.40;99.90
19781;DHT22;10050;55.492;13.506;2023-05-29T08:44:33;22.30;99.90
19781;DHT22;10050;55.492;13.506;2023-05-29T08:47:02;22.30;99.90
19781;DHT22;10050;55.492;13.506;2023-05-29T08:49:45;22.40;99.90
19781;DHT22;10050;55.492;13.506;2023-05-29T08:52:16;22.30;99.90
19781;DHT22;10050;55.492;13.506;2023-05-29T08:54:44;22.40;99.90
19781;DHT22;10050;55.492;13.506;2023-05-29T08:57:11;22.90;99.90
19781;DHT22;10050;55.492;13.506;2023-05-29T08:59:39;22.90;99.90
19781;DHT22;10050;55.492;13.506;2023-05-29T09:02:07;22.90;99.90
19781;DHT22;10050;55.492;13.506;2023-05-29T09:04:33;23.10;99.90
19781;DHT22;10050;55.492;13.506;2023-05-29T09:06:59;23.20;99.90
19781;DHT22;10050;55.492;13.506;2023-05-29T09:09:29;23.20;99.90
19781;DHT22;10050;55.492;13.506;2023-05-29T09:11:57;23.30;99.90
19781;DHT22;10050;55.492;13.506;2023-05-29T09:14:37;23.10;99.90
19781;DHT22;10050;55.492;13.506;2023-05-29T09:17:05;23.30;99.90
19781;DHT22;10050;55.492;13.506;2023-05-29T09:19:34;23.20;99.90
19781;DHT22;10050;55.492;13.506;2023-05-29T09:22:05;23.10;99.90
19781;DHT22;10050;55.492;13.506;2023-05-29T09:24:32;23.10;99.90
19781;DHT22;10050;55.492;13.506;2023-05-29T09:26:59;23.40;99.90
19781;DHT22;10050;55.492;13.506;2023-05-29T09:29:26;23.70;99.90
19781;DHT22;10050;55.492;13.506;2023-05-29T09:31:52;23.90;99.90
19781;DHT22;10050;55.492;13.506;2023-05-29T09:34:18;24.00;99.90
19781;DHT22;10050;55.492;13.506;2023-05-29T09:36:44;23.80;99.90
19781;DHT22;10050;55.492;13.506;2023-05-29T09:39:10;23.60;99.90
19781;DHT22;10050;55.492;13.506;2023-05-29T09:41:43;23.60;99.90
19781;DHT22;10050;55.492;13.506;2023-05-29T09:44:12;23.80;99.90
19781;DHT22;10050;55.492;13.506;2023-05-29T09:46:40;23.30;99.90
19781;DHT22;10050;55.492;13.506;2023-05-29T09:49:13;23.70;99.90
19781;DHT22;10050;55.492;13.506;2023-05-29T09:51:41;23.90;99.90
19781;DHT22;10050;55.492;13.506;2023-05-29T09:54:14;24.20;99.90
19781;DHT22;10050;55.492;13.506;2023-05-29T09:56:42;24.50;99.90
19781;DHT22;10050;55.492;13.506;2023-05-29T09:59:13;24.50;99.90
19781;DHT22;10050;55.492;13.506;2023-05-29T10:01:43;24.30;99.80
19781;DHT22;10050;55.492;13.506;2023-05-29T10:04:11;24.30;99.90
19781;DHT22;10050;55.492;13.506;2023-05-29T10:06:38;24.50;99.90
19781;DHT22;10050;55.492;13.506;2023-05-29T10:09:09;24.30;99.50
19781;DHT22;10050;55.492;13.506;2023-05-29T10:11:37;24.20;99.60
19781;DHT22;10050;55.492;13.506;2023-05-29T10:14:04;24.40;99.40
19781;DHT22;10050;55.492;13.506;2023-05-29T10:16:32;24.40;98.90
19781;DHT22;10050;55.492;13.506;2023-05-29T10:19:01;24.60;99.70
19781;DHT22;10050;55.492;13.506;2023-05-29T10:21:36;24.70;98.60
19781;DHT22;10050;55.492;13.506;2023-05-29T10:24:06;24.70;97.20
19781;DHT22;10050;55.492;13.506;2023-05-29T10:26:36;24.50;97.70
19781;DHT22;10050;55.492;13.506;2023-05-29T10:29:10;24.70;97.40
19781;DHT22;10050;55.492;13.506;2023-05-29T10:32:01;24.80;98.40
19781;DHT22;10050;55.492;13.506;2023-05-29T10:39:37;23.70;99.90
19781;DHT22;10050;55.492;13.506;2023-05-29T10:45:08;24.20;99.90
19781;DHT22;10050;55.492;13.506;2023-05-29T10:47:34;23.50;99.90
19781;DHT22;10050;55.492;13.506;2023-05-29T10:50:00;23.10;99.90
19781;DHT22;10050;55.492;13.506;2023-05-29T10:52:33;23.10;99.90
19781;DHT22;10050;55.492;13.506;2023-05-29T10:54:59;22.80;99.90
19781;DHT22;10050;55.492;13.506;2023-05-29T10:57:29;22.50;99.90
19781;DHT22;10050;55.492;13.506;2023-05-29T11:00:06;22.80;99.90
19781;DHT22;10050;55.492;13.506;2023-05-29T11:02:36;23.10;99.90
19781;DHT22;10050;55.492;13.506;2023-05-29T11:05:18;22.80;99.90
19781;DHT22;10050;55.492;13.506;2023-05-29T11:08:01;22.30;99.90
19781;DHT22;10050;55.492;13.506;2023-05-29T11:13:26;22.80;99.90
19781;DHT22;10050;55.492;13.506;2023-05-29T11:18:54;23.20;99.90
19781;DHT22;10050;55.492;13.506;2023-05-29T11:24:07;22.80;99.90
19781;DHT22;10050;55.492;13.506;2023-05-29T11:26:35;22.90;99.90
19781;DHT22;10050;55.492;13.506;2023-05-29T11:29:05;22.80;99.90
19781;DHT22;10050;55.492;13.506;2023-05-29T11:31:37;22.90;99.80
19781;DHT22;10050;55.492;13.506;2023-05-29T11:34:12;22.80;99.90
19781;DHT22;10050;55.492;13.506;2023-05-29T11:36:39;22.80;98.60
19781;DHT22;10050;55.492;13.506;2023-05-29T11:39:05;22.90;99.90
19781;DHT22;10050;55.492;13.506;2023-05-29T11:41:31;22.80;99.60
19781;DHT22;10050;55.492;13.506;2023-05-29T11:44:02;22.60;98.00
19781;DHT22;10050;55.492;13.506;2023-05-29T11:46:28;22.40;96.20
19781;DHT22;10050;55.492;13.506;2023-05-29T11:48:58;22.60;97.00
19781;DHT22;10050;55.492;13.506;2023-05-29T11:51:24;22.70;97.10
19781;DHT22;10050;55.492;13.506;2023-05-29T11:53:50;22.80;98.30
19781;DHT22;10050;55.492;13.506;2023-05-29T11:56:18;22.50;96.20
19781;DHT22;10050;55.492;13.506;2023-05-29T11:58:45;22.10;96.40
19781;DHT22;10050;55.492;13.506;2023-05-29T12:01:11;22.10;95.30
19781;DHT22;10050;55.492;13.506;2023-05-29T12:03:45;22.20;97.20
19781;DHT22;10050;55.492;13.506;2023-05-29T12:06:11;22.30;96.70
19781;DHT22;10050;55.492;13.506;2023-05-29T12:08:38;22.40;96.10
19781;DHT22;10050;55.492;13.506;2023-05-29T12:11:04;22.20;93.90
19781;DHT22;10050;55.492;13.506;2023-05-29T12:13:30;21.90;94.60
19781;DHT22;10050;55.492;13.506;2023-05-29T12:16:04;21.70;94.60
19781;DHT22;10050;55.492;13.506;2023-05-29T12:18:31;21.60;93.70
19781;DHT22;10050;55.492;13.506;2023-05-29T12:20:58;21.40;94.90
19781;DHT22;10050;55.492;13.506;2023-05-29T12:23:24;21.30;94.60
19781;DHT22;10050;55.492;13.506;2023-05-29T12:25:51;21.50;94.40
19781;DHT22;10050;55.492;13.506;2023-05-29T12:28:18;21.50;94.10
19781;DHT22;10050;55.492;13.506;2023-05-29T12:30:44;21.60;93.80
19781;DHT22;10050;55.492;13.506;2023-05-29T12:33:31;21.70;94.20
19781;DHT22;10050;55.492;13.506;2023-05-29T12:36:06;21.70;93.90
19781;DHT22;10050;55.492;13.506;2023-05-29T12:38:46;21.50;94.50
19781;DHT22;10050;55.492;13.506;2023-05-29T12:43:48;21.40;96.10
19781;DHT22;10050;55.492;13.506;2023-05-29T12:46:13;21.30;97.30
19781;DHT22;10050;55.492;13.506;2023-05-29T12:48:39;21.10;95.70
19781;DHT22;10050;55.492;13.506;2023-05-29T12:51:06;21.10;97.50
19781;DHT22;10050;55.492;13.506;2023-05-29T12:53:33;21.20;97.10
19781;DHT22;10050;55.492;13.506;2023-05-29T12:55:59;21.30;96.00
19781;DHT22;10050;55.492;13.506;2023-05-29T12:58:24;21.40;94.80
19781;DHT22;10050;55.492;13.506;2023-05-29T13:00:53;21.40;96.20
19781;DHT22;10050;55.492;13.506;2023-05-29T13:03:22;21.50;96.20
19781;DHT22;10050;55.492;13.506;2023-05-29T13:05:51;21.80;95.40
19781;DHT22;10050;55.492;13.506;2023-05-29T13:08:18;22.10;94.30
19781;DHT22;10050;55.492;13.506;2023-05-29T13:10:44;22.20;96.00
19781;DHT22;10050;55.492;13.506;2023-05-29T13:13:10;22.30;95.50
19781;DHT22;10050;55.492;13.506;2023-05-29T13:15:37;22.20;96.70
19781;DHT22;10050;55.492;13.506;2023-05-29T13:18:05;22.10;96.10
19781;DHT22;10050;55.492;13.506;2023-05-29T13:20:31;21.90;95.00
19781;DHT22;10050;55.492;13.506;2023-05-29T13:22:57;21.90;95.60
19781;DHT22;10050;55.492;13.506;2023-05-29T13:25:23;22.00;96.40
19781;DHT22;10050;55.492;13.506;2023-05-29T13:27:51;21.60;96.70
19781;DHT22;10050;55.492;13.506;2023-05-29T13:30:18;21.50;97.60
19781;DHT22;10050;55.492;13.506;2023-05-29T13:32:43;21.60;97.60
19781;DHT22;10050;55.492;13.506;2023-05-29T13:35:09;21.50;97.60
19781;DHT22;10050;55.492;13.506;2023-05-29T13:37:36;21.40;98.00
19781;DHT22;10050;55.492;13.506;2023-05-29T13:40:07;21.40;97.50
19781;DHT22;10050;55.492;13.506;2023-05-29T13:42:41;21.40;98.00
19781;DHT22;10050;55.492;13.506;2023-05-29T13:45:08;21.50;98.60
19781;DHT22;10050;55.492;13.506;2023-05-29T13:47:34;21.50;97.60
19781;DHT22;10050;55.492;13.506;2023-05-29T13:50:01;21.60;98.20
19781;DHT22;10050;55.492;13.506;2023-05-29T13:52:26;21.60;97.00
19781;DHT22;10050;55.492;13.506;2023-05-29T13:54:57;21.70;97.50
19781;DHT22;10050;55.492;13.506;2023-05-29T13:57:25;21.70;97.10
19781;DHT22;10050;55.492;13.506;2023-05-29T13:59:52;21.60;96.70
19781;DHT22;10050;55.492;13.506;2023-05-29T14:02:18;21.60;96.40
19781;DHT22;10050;55.492;13.506;2023-05-29T14:04:47;21.30;96.50
19781;DHT22;10050;55.492;13.506;2023-05-29T14:07:12;21.10;97.00
19781;DHT22;10050;55.492;13.506;2023-05-29T14:09:38;21.00;97.30
19781;DHT22;10050;55.492;13.506;2023-05-29T14:12:04;20.90;95.70
19781;DHT22;10050;55.492;13.506;2023-05-29T14:14:32;20.80;97.20
19781;DHT22;10050;55.492;13.506;2023-05-29T14:16:57;20.60;96.70
19781;DHT22;10050;55.492;13.506;2023-05-29T14:19:23;20.40;96.20
19781;DHT22;10050;55.492;13.506;2023-05-29T14:21:51;20.30;97.20
19781;DHT22;10050;55.492;13.506;2023-05-29T14:24:16;20.20;97.00
19781;DHT22;10050;55.492;13.506;2023-05-29T14:26:43;20.30;97.00
19781;DHT22;10050;55.492;13.506;2023-05-29T14:29:12;20.50;96.60
19781;DHT22;10050;55.492;13.506;2023-05-29T14:31:39;20.50;96.10
19781;DHT22;10050;55.492;13.506;2023-05-29T14:34:05;20.50;95.40
19781;DHT22;10050;55.492;13.506;2023-05-29T14:36:30;20.40;95.90
19781;DHT22;10050;55.492;13.506;2023-05-29T14:38:56;20.40;95.50
19781;DHT22;10050;55.492;13.506;2023-05-29T15:04:29;19.50;96.40
19781;DHT22;10050;55.492;13.506;2023-05-29T15:06:54;19.60;96.20
19781;DHT22;10050;55.492;13.506;2023-05-29T15:09:21;19.50;96.00
19781;DHT22;10050;55.492;13.506;2023-05-29T15:11:46;19.60;97.50
19781;DHT22;10050;55.492;13.506;2023-05-29T15:14:12;19.60;96.50
19781;DHT22;10050;55.492;13.506;2023-05-29T15:16:38;19.50;97.30
19781;DHT22;10050;55.492;13.506;2023-05-29T15:19:03;19.50;95.50
19781;DHT22;10050;55.492;13.506;2023-05-29T15:21:30;19.50;96.20
19781;DHT22;10050;55.492;13.506;2023-05-29T15:23:56;19.40;96.70
19781;DHT22;10050;55.492;13.506;2023-05-29T15:26:22;19.20;96.60
19781;DHT22;10050;55.492;13.506;2023-05-29T15:28:47;19.10;96.50
19781;DHT22;10050;55.492;13.506;2023-05-29T15:31:13;19.00;96.60
19781;DHT22;10050;55.492;13.506;2023-05-29T15:33:39;19.00;97.90
19781;DHT22;10050;55.492;13.506;2023-05-29T15:36:05;19.00;97.60
19781;DHT22;10050;55.492;13.506;2023-05-29T15:38:31;18.80;97.00
19781;DHT22;10050;55.492;13.506;2023-05-29T15:40:58;18.80;98.30
19781;DHT22;10050;55.492;13.506;2023-05-29T15:43:23;18.80;98.00
19781;DHT22;10050;55.492;13.506;2023-05-29T15:45:51;18.60;97.50
19781;DHT22;10050;55.492;13.506;2023-05-29T15:48:19;18.70;98.20
19781;DHT22;10050;55.492;13.506;2023-05-29T15:50:45;18.60;98.00
19781;DHT22;10050;55.492;13.506;2023-05-29T15:53:10;18.50;98.20
19781;DHT22;10050;55.492;13.506;2023-05-29T15:55:36;18.50;98.70
19781;DHT22;10050;55.492;13.506;2023-05-29T15:58:02;18.50;99.20
19781;DHT22;10050;55.492;13.506;2023-05-29T16:00:27;18.40;98.80
19781;DHT22;10050;55.492;13.506;2023-05-29T16:02:53;18.20;98.30
19781;DHT22;10050;55.492;13.506;2023-05-29T16:05:19;18.20;99.60
19781;DHT22;10050;55.492;13.506;2023-05-29T16:07:45;18.20;99.90
19781;DHT22;10050;55.492;13.506;2023-05-29T16:10:14;18.30;97.90
19781;DHT22;10050;55.492;13.506;2023-05-29T16:12:43;18.20;99.90